createdAt,value
2024-03-14T00:00:44.523Z,4.30
2024-03-14T00:05:46.484Z,4.80
2024-03-14T00:10:52.366Z,4.97
2024-03-14T00:15:55.324Z,4.78
2024-03-14T00:20:57.094Z,4.82
2024-03-14T00:25:58.792Z,4.63
2024-03-14T00:31:00.872Z,4.72
2024-03-14T00:36:03.023Z,4.72
2024-03-14T00:41:05.005Z,4.82
2024-03-14T00:46:06.954Z,4.35
2024-03-14T00:51:11.563Z,5.25
2024-03-14T00:56:14.986Z,5.00
2024-03-14T01:01:16.770Z,5.07
2024-03-14T01:06:18.519Z,4.97
2024-03-14T01:11:20.571Z,4.80
2024-03-14T01:16:22.467Z,4.82
2024-03-14T01:21:24.288Z,4.68
2024-03-14T01:26:27.624Z,5.55
2024-03-14T01:31:30.315Z,4.47
2024-03-14T01:36:32.103Z,5.05
2024-03-14T01:41:33.907Z,5.00
2024-03-14T01:46:36.488Z,5.50
2024-03-14T01:51:38.507Z,5.43
2024-03-14T01:56:58.926Z,5.25
2024-03-14T02:02:00.913Z,5.40
2024-03-14T02:07:15.202Z,5.68
2024-03-14T02:12:17.077Z,5.75
2024-03-14T02:17:18.832Z,5.65
2024-03-14T02:22:23.679Z,5.78
2024-03-14T02:27:25.560Z,6.03
2024-03-14T02:32:27.691Z,5.80
2024-03-14T02:37:31.758Z,6.03
2024-03-14T02:42:33.650Z,5.80
2024-03-14T02:47:36.893Z,6.82
2024-03-14T02:52:39.442Z,5.35
2024-03-14T02:57:42.188Z,6.90
2024-03-14T03:02:47.104Z,6.43
2024-03-14T03:07:50.244Z,6.88
2024-03-14T03:12:52.038Z,6.88
2024-03-14T03:17:53.802Z,7.43
2024-03-14T03:23:07.907Z,7.65
2024-03-14T03:28:13.300Z,7.63
2024-03-14T03:33:19.880Z,7.75
2024-03-14T03:38:21.659Z,8.07
2024-03-14T03:43:23.589Z,7.57
2024-03-14T03:48:25.381Z,6.97
2024-03-14T03:53:27.196Z,7.35
2024-03-14T03:58:28.888Z,6.38
2024-03-14T04:03:31.261Z,6.40
2024-03-14T04:08:33.032Z,5.60
2024-03-14T04:13:35.264Z,6.18
2024-03-14T04:18:36.979Z,5.47
2024-03-14T04:23:38.687Z,5.88
2024-03-14T04:28:40.358Z,5.80
2024-03-14T04:33:42.245Z,5.97
2024-03-14T04:38:44.115Z,6.07
2024-03-14T04:43:45.988Z,6.00
2024-03-14T04:48:47.740Z,6.32
2024-03-14T04:53:49.532Z,5.47
2024-03-14T04:58:51.799Z,5.85
2024-03-14T05:03:53.517Z,5.80
2024-03-14T05:08:55.854Z,5.75
2024-03-14T05:13:58.172Z,5.00
2024-03-14T05:19:00.767Z,5.60
2024-03-14T05:24:02.543Z,5.00
2024-03-14T05:29:04.597Z,5.40
2024-03-14T05:34:08.000Z,5.70
2024-03-14T05:39:10.521Z,5.88
2024-03-14T05:44:12.343Z,5.70
2024-03-14T05:49:14.270Z,6.03
2024-03-14T05:54:16.396Z,6.35
2024-03-14T05:59:18.255Z,6.00
2024-03-14T06:04:22.662Z,5.78
2024-03-14T06:09:34.554Z,5.75
2024-03-14T06:14:37.181Z,5.28
2024-03-14T06:19:39.196Z,5.50
2024-03-14T06:24:40.928Z,5.80
2024-03-14T06:29:42.970Z,5.55
2024-03-14T06:34:45.563Z,6.35
2024-03-14T06:39:58.115Z,6.10
2024-03-14T06:45:04.697Z,6.45
2024-03-14T06:50:07.667Z,6.47
2024-03-14T06:55:11.326Z,7.90
2024-03-14T07:00:14.020Z,6.95
2024-03-14T07:05:16.930Z,7.55
2024-03-14T07:10:20.439Z,6.88
2024-03-14T07:15:23.437Z,7.28
2024-03-14T07:20:34.391Z,5.80
2024-03-14T07:25:36.254Z,6.38
2024-03-14T07:30:38.144Z,5.47
2024-03-14T07:35:46.093Z,5.80
2024-03-14T07:40:48.038Z,4.95
2024-03-14T07:45:50.166Z,5.55
2024-03-14T07:50:52.290Z,5.60
2024-03-14T07:55:54.133Z,4.97
2024-03-14T08:00:57.112Z,5.00
2024-03-14T08:06:00.509Z,5.90
2024-03-14T08:11:04.599Z,5.50
2024-03-14T08:16:09.972Z,5.35
2024-03-14T08:21:14.297Z,5.82
2024-03-14T08:26:18.717Z,5.43
2024-03-14T08:31:22.838Z,5.55
2024-03-14T08:36:24.683Z,5.72
2024-03-14T08:41:26.460Z,5.65
2024-03-14T08:46:28.153Z,5.95
2024-03-14T08:51:29.960Z,5.82
2024-03-14T08:56:31.735Z,5.68
2024-03-14T09:01:33.670Z,5.75
2024-03-14T09:06:35.931Z,6.03
2024-03-14T09:11:37.736Z,5.57
2024-03-14T09:16:39.600Z,4.05
2024-03-14T09:21:41.414Z,4.45
2024-03-14T09:26:43.642Z,3.97
2024-03-14T09:31:45.537Z,3.25
2024-03-14T09:36:51.750Z,4.07
2024-03-14T09:41:53.573Z,3.55
2024-03-14T09:47:08.231Z,3.88
2024-03-14T09:52:10.159Z,3.40
2024-03-14T09:57:13.280Z,2.83
2024-03-14T10:02:19.383Z,2.63
2024-03-14T10:07:21.570Z,2.53
2024-03-14T10:12:23.351Z,4.93
2024-03-14T10:17:26.321Z,7.07
2024-03-14T10:22:28.886Z,7.03
2024-03-14T10:27:31.081Z,7.22
2024-03-14T10:32:33.337Z,7.03
2024-03-14T10:37:36.012Z,7.38
2024-03-14T10:42:38.963Z,7.07
2024-03-14T10:47:42.688Z,7.78
2024-03-14T10:52:50.432Z,7.95
2024-03-14T10:57:52.965Z,8.07
2024-03-14T11:02:56.967Z,8.65
2024-03-14T11:08:02.608Z,8.50
2024-03-14T11:13:22.153Z,7.82
2024-03-14T11:18:34.348Z,8.60
2024-03-14T11:23:38.559Z,7.60
2024-03-14T11:28:42.700Z,9.32
2024-03-14T11:33:46.843Z,8.23
2024-03-14T11:38:48.815Z,8.82
2024-03-14T11:43:54.048Z,7.00
2024-03-14T11:48:56.265Z,6.65
2024-03-14T11:54:01.381Z,6.68
2024-03-14T11:59:03.379Z,6.45
2024-03-14T12:04:07.997Z,6.30
2024-03-14T12:09:20.953Z,6.15
2024-03-14T12:14:23.510Z,6.25
2024-03-14T12:19:27.082Z,6.30
2024-03-14T12:24:29.255Z,6.13
2024-03-14T12:29:31.596Z,7.40
2024-03-14T12:34:33.762Z,7.55
2024-03-14T12:39:36.436Z,9.45
2024-03-14T12:44:38.569Z,8.73
2024-03-14T12:49:40.320Z,7.68
2024-03-14T12:54:42.218Z,7.85
2024-03-14T12:59:48.990Z,8.18
2024-03-14T13:04:51.717Z,6.65
2024-03-14T13:10:13.816Z,6.05
2024-03-14T13:15:24.435Z,6.45
2024-03-14T13:20:30.771Z,5.72
2024-03-14T13:25:32.704Z,6.38
2024-03-14T13:30:34.761Z,6.32
2024-03-14T13:35:40.286Z,7.35
2024-03-14T13:40:42.062Z,8.02
2024-03-14T13:45:48.102Z,6.32
2024-03-14T13:50:51.709Z,6.13
2024-03-14T13:55:57.618Z,5.38
2024-03-14T14:01:01.075Z,5.97
2024-03-14T14:06:05.194Z,6.45
2024-03-14T14:11:08.424Z,6.90
2024-03-14T14:16:16.596Z,6.30
2024-03-14T14:21:18.680Z,6.90
2024-03-14T14:26:20.380Z,6.10
2024-03-14T14:31:22.892Z,6.28
2024-03-14T14:36:24.678Z,7.47
2024-03-14T14:41:26.445Z,6.50
2024-03-14T14:46:28.353Z,7.07
2024-03-14T14:51:30.196Z,8.07
2024-03-14T14:56:31.856Z,7.60
2024-03-14T15:01:34.133Z,7.47
2024-03-14T15:06:37.030Z,8.20
2024-03-14T15:11:38.999Z,8.23
2024-03-14T15:16:40.842Z,7.55
2024-03-14T15:21:42.585Z,7.70
2024-03-14T15:26:45.194Z,10.90
2024-03-14T15:31:46.956Z,8.55
2024-03-14T15:36:48.661Z,7.75
2024-03-14T15:41:51.514Z,7.95
2024-03-14T15:46:53.208Z,8.43
2024-03-14T15:51:55.929Z,7.90
2024-03-14T15:56:57.778Z,9.38
2024-03-14T16:02:01.568Z,10.88
2024-03-14T16:07:07.154Z,11.18
2024-03-14T16:12:09.666Z,9.40
2024-03-14T16:17:12.201Z,9.48
2024-03-14T16:22:14.654Z,8.57
2024-03-14T16:27:17.525Z,9.15
2024-03-14T16:32:19.231Z,9.15
2024-03-14T16:37:21.201Z,8.35
2024-03-14T16:42:25.612Z,9.73
2024-03-14T16:47:27.793Z,8.70
2024-03-14T16:52:29.689Z,9.45
2024-03-14T16:57:32.467Z,9.52
2024-03-14T17:02:34.403Z,8.80
2024-03-14T17:07:36.089Z,9.00
2024-03-14T17:12:39.726Z,8.88
2024-03-14T17:17:41.595Z,9.20
2024-03-14T17:22:47.398Z,9.45
2024-03-14T17:27:51.686Z,10.00
2024-03-14T17:32:55.124Z,10.00
2024-03-14T17:37:57.740Z,9.77
2024-03-14T17:42:59.658Z,9.13
2024-03-14T17:48:01.676Z,9.90
2024-03-14T17:53:07.045Z,10.57
2024-03-14T17:58:10.145Z,10.50
2024-03-14T18:03:12.307Z,10.30
2024-03-14T18:08:14.708Z,10.25
2024-03-14T18:13:17.386Z,10.65
2024-03-14T18:18:20.207Z,10.88
2024-03-14T18:23:22.279Z,10.73
2024-03-14T18:28:24.782Z,10.90
2024-03-14T18:33:26.742Z,11.52
2024-03-14T18:38:28.519Z,10.98
2024-03-14T18:43:30.923Z,12.02
2024-03-14T18:48:32.791Z,10.57
2024-03-14T18:53:34.590Z,11.90
2024-03-14T18:58:36.547Z,11.27
2024-03-14T19:03:39.569Z,11.15
2024-03-14T19:08:41.428Z,12.75
2024-03-14T19:13:45.547Z,13.77
2024-03-14T19:18:47.534Z,12.95
2024-03-14T19:23:49.656Z,14.70
2024-03-14T19:28:53.159Z,15.95
2024-03-14T19:33:54.900Z,19.35
2024-03-14T19:38:59.187Z,16.98
2024-03-14T19:44:03.394Z,19.25
2024-03-14T19:49:05.764Z,18.45
2024-03-14T19:54:07.917Z,22.13
2024-03-14T19:59:09.719Z,22.90
2024-03-14T20:04:11.920Z,25.80
2024-03-14T20:09:14.872Z,25.13
2024-03-14T20:14:16.692Z,22.23
2024-03-14T20:19:19.606Z,21.13
2024-03-14T20:24:22.045Z,21.13
2024-03-14T20:29:24.931Z,20.60
2024-03-14T20:34:28.133Z,18.67
2024-03-14T20:39:42.153Z,19.20
2024-03-14T20:44:45.848Z,16.77
2024-03-14T20:49:47.969Z,18.17
2024-03-14T20:55:08.126Z,19.77
2024-03-14T21:00:25.340Z,16.98
2024-03-14T21:05:27.589Z,17.98
2024-03-14T21:10:35.237Z,17.67
2024-03-14T21:15:39.922Z,17.00
2024-03-14T21:20:43.331Z,17.20
2024-03-14T21:25:49.027Z,17.20
2024-03-14T21:30:53.082Z,17.10
2024-03-14T21:35:54.982Z,16.15
2024-03-14T21:40:57.373Z,16.45
2024-03-14T21:45:59.519Z,16.95
2024-03-14T21:51:02.181Z,16.48
2024-03-14T21:56:04.557Z,18.92
2024-03-14T22:01:07.273Z,16.10
2024-03-14T22:06:09.413Z,17.02
2024-03-14T22:11:13.375Z,17.88
2024-03-14T22:16:15.442Z,17.85
2024-03-14T22:21:17.259Z,16.85
2024-03-14T22:26:19.192Z,18.15
2024-03-14T22:31:21.056Z,18.02
2024-03-14T22:36:22.960Z,19.17
2024-03-14T22:41:26.261Z,17.45
2024-03-14T22:46:27.957Z,16.98
2024-03-14T22:51:29.903Z,16.90
2024-03-14T22:56:31.663Z,17.63
2024-03-14T23:01:38.636Z,17.23
2024-03-14T23:06:41.757Z,15.70
2024-03-14T23:11:44.101Z,14.90
2024-03-14T23:16:46.787Z,14.93
2024-03-14T23:21:49.875Z,14.85
2024-03-14T23:26:51.760Z,13.27
2024-03-14T23:31:53.657Z,15.48
2024-03-14T23:36:55.360Z,10.02
2024-03-14T23:41:57.664Z,8.60
2024-03-14T23:47:00.802Z,7.90
2024-03-14T23:52:02.515Z,7.75
2024-03-14T23:57:04.764Z,7.00
